Time;durP1;ratioP1;P1;durP2;ratioP2;P2;SDS_P1;SDS_P2;PMS_P1;PMS_P2;Temp;Humidity;BMP_temperature;BMP_pressure;BME280_temperature;BME280_humidity;BME280_pressure;Samples;Min_cycle;Max_cycle;Signal;HPM_P1;HPM_P2
2022/01/24 00:02:06;;;;;;;15.88;9.98;;;-0.60;99.90;;;;;;5053700;28;20061;-74
2022/01/24 00:04:32;;;;;;;16.52;9.63;;;-0.60;99.90;;;;;;5053216;28;20017;-74
2022/01/24 00:06:58;;;;;;;19.95;10.10;;;-0.60;99.90;;;;;;5053232;28;20090;-74
2022/01/24 00:09:23;;;;;;;17.33;10.27;;;-0.60;99.90;;;;;;5053020;28;20037;-74
2022/01/24 00:12:02;;;;;;;15.57;8.82;;;-0.50;99.90;;;;;;5053243;28;20056;-73
2022/01/24 00:14:57;;;;;;;14.60;8.70;;;-0.40;99.90;;;;;;5053505;28;20037;-74
2022/01/24 00:17:41;;;;;;;18.00;9.40;;;-0.50;99.90;;;;;;5053053;28;20075;-73
2022/01/24 00:28:22;;;;;;;15.57;8.25;;;0.40;99.90;;;;;;5053128;28;20524;-75
2022/01/24 00:30:48;;;;;;;17.08;8.57;;;-0.80;99.90;;;;;;5053058;28;20037;-74
2022/01/24 00:33:15;;;;;;;18.35;8.38;;;-0.80;99.90;;;;;;5051654;28;20033;-74
2022/01/24 00:35:40;;;;;;;20.38;10.40;;;0.90;99.90;;;;;;5051405;28;20394;-74
2022/01/24 00:38:06;;;;;;;12.48;7.88;;;-0.40;99.90;;;;;;5033040;28;20040;-74
2022/01/24 00:40:36;;;;;;;17.20;8.75;;;-0.60;99.90;;;;;;5032307;28;20664;-74
2022/01/24 00:43:05;;;;;;;15.05;8.13;;;-0.70;99.90;;;;;;5032987;28;20490;-74
2022/01/24 00:45:52;;;;;;;18.00;8.20;;;-0.60;99.90;;;;;;5046301;28;20442;-74
2022/01/24 00:55:57;;;;;;;18.55;9.45;;;-0.80;99.90;;;;;;5052032;28;20115;-74
2022/01/24 00:58:23;;;;;;;16.83;9.60;;;-0.80;99.90;;;;;;5052061;28;20037;-74
2022/01/24 01:00:49;;;;;;;17.05;8.85;;;-0.70;99.90;;;;;;5052344;28;20420;-74
2022/01/24 01:03:15;;;;;;;16.23;8.65;;;-0.80;99.90;;;;;;5041221;28;20063;-74
2022/01/24 01:19:06;;;;;;;16.15;8.68;;;-0.90;99.90;;;;;;5051707;28;20058;-74
2022/01/24 01:21:32;;;;;;;16.52;8.80;;;-1.10;99.90;;;;;;5052617;28;20039;-74
2022/01/24 01:23:59;;;;;;;15.05;8.43;;;-0.50;99.90;;;;;;5052362;28;20025;-74
2022/01/24 01:29:03;;;;;;;12.60;7.70;;;-1.00;99.90;;;;;;5051845;28;20059;-75
2022/01/24 01:31:48;;;;;;;12.95;7.70;;;-1.10;99.90;;;;;;5050870;28;20021;-74
2022/01/24 01:34:36;;;;;;;17.77;8.10;;;-1.10;99.90;;;;;;5051867;28;20493;-75
2022/01/24 01:56:00;;;;;;;13.60;8.30;;;-0.80;99.90;;;;;;5049124;28;20036;-75
2022/01/24 01:58:26;;;;;;;11.02;6.72;;;-0.90;99.90;;;;;;5051070;28;20033;-75
2022/01/24 02:00:54;;;;;;;11.45;6.82;;;-0.90;99.90;;;;;;5051268;28;20033;-75
2022/01/24 02:03:22;;;;;;;12.68;6.55;;;-0.90;99.90;;;;;;5051390;28;20033;-75
2022/01/24 02:05:48;;;;;;;13.32;6.85;;;-1.10;99.90;;;;;;5051575;28;20639;-75
2022/01/24 02:08:15;;;;;;;15.00;7.63;;;-1.10;99.90;;;;;;5051654;28;20057;-75
2022/01/24 02:10:42;;;;;;;12.70;7.18;;;-1.20;99.90;;;;;;5050884;28;20025;-75
2022/01/24 02:13:08;;;;;;;15.82;7.32;;;-1.10;99.90;;;;;;5052269;28;20033;-75
2022/01/24 02:20:41;;;;;;;14.40;8.02;;;-1.30;99.90;;;;;;5050250;28;20048;-74
2022/01/24 02:26:11;;;;;;;14.95;7.28;;;-1.50;99.90;;;;;;5019417;28;20465;-75
2022/01/24 02:33:56;;;;;;;14.43;7.22;;;-1.40;99.90;;;;;;5051140;28;20032;-75
2022/01/24 02:36:24;;;;;;;15.35;7.43;;;-1.60;99.90;;;;;;5033561;28;20025;-75
2022/01/24 02:39:31;;;;;;;16.02;7.43;;;-1.40;99.90;;;;;;5051002;28;20029;-75
2022/01/24 02:49:49;;;;;;;18.25;10.85;;;-1.10;99.90;;;;;;5054445;28;20509;-75
2022/01/24 02:52:15;;;;;;;18.98;10.45;;;-0.80;99.90;;;;;;5053734;28;20033;-75
2022/01/24 02:54:42;;;;;;;21.48;12.88;;;-0.50;99.90;;;;;;5054990;28;20025;-75
2022/01/24 02:57:09;;;;;;;21.20;12.02;;;-0.40;99.90;;;;;;5054669;28;20033;-75
2022/01/24 02:59:35;;;;;;;18.85;10.85;;;-0.20;99.90;;;;;;5054345;28;20112;-75
2022/01/24 03:02:02;;;;;;;19.15;11.70;;;0.20;99.90;;;;;;5052828;28;20082;-75
2022/01/24 03:04:28;;;;;;;15.43;9.75;;;-0.40;99.90;;;;;;5054689;28;20025;-75
2022/01/24 03:06:53;;;;;;;17.20;9.63;;;-0.60;99.90;;;;;;5054647;28;20379;-75
2022/01/24 03:09:22;;;;;;;18.20;10.30;;;-0.70;99.90;;;;;;5053840;28;20120;-75
2022/01/24 03:14:31;;;;;;;15.65;9.07;;;-0.80;99.90;;;;;;5054942;28;20029;-75
2022/01/24 03:16:58;;;;;;;19.08;9.45;;;-0.90;99.90;;;;;;5054349;28;20029;-76
2022/01/24 03:19:23;;;;;;;17.65;9.52;;;-0.90;99.90;;;;;;5054320;28;20026;-75
2022/01/24 03:21:49;;;;;;;18.73;10.25;;;-0.90;99.90;;;;;;5054241;28;20072;-74
2022/01/24 03:24:15;;;;;;;17.45;9.93;;;-1.00;99.90;;;;;;5054257;28;20099;-75
2022/01/24 03:26:42;;;;;;;14.75;9.43;;;-0.90;99.90;;;;;;5054519;28;20615;-75
2022/01/24 03:29:08;;;;;;;16.42;9.65;;;-1.00;99.90;;;;;;5052819;28;20033;-74
2022/01/24 03:31:35;;;;;;;16.13;9.32;;;-1.00;99.90;;;;;;5053650;28;20025;-75
2022/01/24 03:34:01;;;;;;;19.67;9.65;;;-1.10;99.90;;;;;;5053713;28;20087;-75
2022/01/24 03:36:27;;;;;;;18.90;9.80;;;-1.30;99.90;;;;;;5054142;28;20037;-75
2022/01/24 03:38:52;;;;;;;18.42;9.43;;;-1.30;99.90;;;;;;5053640;28;20036;-75
2022/01/24 03:41:18;;;;;;;17.25;9.55;;;-1.30;99.90;;;;;;5053523;28;20041;-75
2022/01/24 03:43:44;;;;;;;14.73;9.23;;;-1.30;99.90;;;;;;5054088;28;20545;-75
2022/01/24 03:46:13;;;;;;;17.33;9.95;;;-1.30;99.90;;;;;;5053676;28;20027;-75
2022/01/24 03:48:50;;;;;;;15.15;9.27;;;-1.40;99.90;;;;;;5051778;28;20025;-75
2022/01/24 03:51:16;;;;;;;19.80;9.88;;;-1.30;99.90;;;;;;5047258;28;20025;-74
2022/01/24 03:53:43;;;;;;;14.77;9.05;;;-1.30;99.90;;;;;;5053803;28;20029;-75
2022/01/24 03:56:09;;;;;;;20.58;9.38;;;-1.40;99.90;;;;;;5053362;28;20033;-75
2022/01/24 03:58:35;;;;;;;16.55;9.18;;;-1.60;99.90;;;;;;5052734;28;20025;-76
2022/01/24 04:01:03;;;;;;;21.30;11.57;;;-0.10;99.90;;;;;;5053234;28;20048;-75
2022/01/24 04:03:29;;;;;;;18.48;9.68;;;-1.60;99.90;;;;;;5052185;28;20024;-76
2022/01/24 04:05:55;;;;;;;16.20;8.70;;;-1.70;99.90;;;;;;5053429;28;20033;-76
2022/01/24 04:08:20;;;;;;;19.30;10.10;;;-1.70;99.90;;;;;;5053472;28;20490;-75
2022/01/24 04:10:50;;;;;;;15.75;9.05;;;-1.70;99.90;;;;;;5052583;28;20029;-75
2022/01/24 04:13:35;;;;;;;18.90;9.80;;;-1.80;99.90;;;;;;5053514;28;20025;-75
2022/01/24 04:21:48;;;;;;;18.67;9.90;;;-1.80;99.90;;;;;;5052819;28;20025;-75
2022/01/24 04:24:08;;;;;;;18.02;9.18;;;-1.90;99.90;;;;;;5051553;28;20032;-75
2022/01/24 04:26:35;;;;;;;22.13;10.60;;;-1.80;99.90;;;;;;5051990;28;20029;-75
2022/01/24 04:29:01;;;;;;;16.48;10.80;;;-2.00;99.90;;;;;;5052651;28;20417;-75
2022/01/24 04:31:27;;;;;;;26.55;12.10;;;-1.80;99.90;;;;;;5052767;28;20025;-76
2022/01/24 04:33:54;;;;;;;22.20;12.43;;;-1.80;99.90;;;;;;5052857;28;20036;-75
2022/01/24 04:36:21;;;;;;;22.77;12.77;;;-1.60;99.90;;;;;;5052615;28;20033;-75
2022/01/24 04:38:47;;;;;;;23.70;11.77;;;-1.40;99.90;;;;;;5052384;28;20025;-75
2022/01/24 04:41:29;;;;;;;22.25;11.73;;;-1.30;99.90;;;;;;5052369;28;20036;-76
2022/01/24 04:46:48;;;;;;;24.85;12.90;;;-1.20;99.90;;;;;;5052970;28;20036;-76
2022/01/24 04:54:45;;;;;;;19.50;11.85;;;-1.10;99.90;;;;;;5052721;28;20532;-75
2022/01/24 04:57:16;;;;;;;17.90;11.20;;;-1.10;99.90;;;;;;5052584;28;20061;-75
2022/01/24 04:59:46;;;;;;;21.90;12.07;;;-1.10;99.90;;;;;;5051978;28;20036;-75
2022/01/24 05:02:13;;;;;;;23.23;11.95;;;-1.10;99.90;;;;;;5052224;28;20029;-75
2022/01/24 05:04:38;;;;;;;20.20;11.63;;;0.30;99.90;;;;;;5052024;28;20100;-75
2022/01/24 05:07:04;;;;;;;21.52;11.73;;;-1.00;99.90;;;;;;5052153;28;20118;-76
2022/01/24 05:09:35;;;;;;;20.20;11.80;;;-0.80;99.90;;;;;;5051795;28;20025;-76
2022/01/24 05:12:04;;;;;;;20.58;11.65;;;-0.80;99.90;;;;;;5051150;28;20068;-76
2022/01/24 05:25:26;;;;;;;17.92;10.23;;;-0.60;99.90;;;;;;5052417;28;20039;-76
2022/01/24 05:27:52;;;;;;;18.60;10.75;;;-0.60;99.90;;;;;;5051765;28;20025;-76
2022/01/24 05:30:18;;;;;;;16.95;10.30;;;-0.50;99.90;;;;;;5051450;28;20087;-75
2022/01/24 05:32:44;;;;;;;19.25;10.93;;;-0.70;99.90;;;;;;5052083;28;20052;-76
2022/01/24 05:35:10;;;;;;;20.95;10.93;;;-0.70;99.90;;;;;;5051550;28;20029;-76
2022/01/24 05:37:36;;;;;;;17.35;10.45;;;-0.50;99.90;;;;;;5050727;28;20037;-76
2022/01/24 05:40:03;;;;;;;19.13;10.93;;;-0.70;99.90;;;;;;5051169;28;20025;-76
2022/01/24 05:42:29;;;;;;;16.45;10.60;;;-0.50;99.90;;;;;;5051927;28;20107;-76
2022/01/24 05:44:54;;;;;;;16.50;9.73;;;-0.50;99.90;;;;;;5050473;28;20122;-75
2022/01/24 05:47:20;;;;;;;20.90;10.93;;;-0.50;99.90;;;;;;5050184;28;20025;-76
2022/01/24 05:49:46;;;;;;;19.23;11.30;;;-0.60;99.90;;;;;;5050919;28;20064;-76
2022/01/24 05:52:12;;;;;;;17.95;10.40;;;-0.60;99.90;;;;;;5050614;28;20086;-75
2022/01/24 05:54:42;;;;;;;20.02;10.77;;;-0.60;99.90;;;;;;5051436;28;20104;-75
2022/01/24 05:57:09;;;;;;;19.73;11.05;;;0.40;99.90;;;;;;5051634;28;20043;-75
2022/01/24 05:59:35;;;;;;;17.42;10.60;;;-0.60;99.90;;;;;;5051480;28;20072;-76
2022/01/24 06:02:01;;;;;;;20.42;10.95;;;-0.70;99.90;;;;;;5051335;28;20060;-76
2022/01/24 06:04:26;;;;;;;18.23;11.25;;;-0.50;99.90;;;;;;5051031;28;20082;-76
2022/01/24 06:06:52;;;;;;;19.02;11.85;;;-0.60;99.90;;;;;;5051293;28;20025;-76
2022/01/24 06:09:18;;;;;;;20.00;10.63;;;-0.60;99.90;;;;;;5051158;28;20078;-76
2022/01/24 06:11:43;;;;;;;19.73;10.65;;;-0.60;99.90;;;;;;5051537;28;20474;-75
2022/01/24 06:14:10;;;;;;;18.40;11.73;;;-0.50;99.90;;;;;;5051348;28;20025;-75
2022/01/24 06:16:36;;;;;;;16.88;10.77;;;-0.40;99.90;;;;;;5051105;28;20029;-76
2022/01/24 06:19:02;;;;;;;19.90;12.10;;;1.10;99.90;;;;;;5050863;28;20031;-76
2022/01/24 06:21:27;;;;;;;20.17;10.93;;;-0.40;99.90;;;;;;5049997;28;20029;-75
2022/01/24 06:23:53;;;;;;;21.77;12.15;;;-0.40;99.90;;;;;;5055315;28;20029;-75
2022/01/24 06:26:18;;;;;;;16.95;11.32;;;-0.20;99.90;;;;;;5055419;28;20025;-75
2022/01/24 06:28:44;;;;;;;19.67;12.25;;;-0.40;99.90;;;;;;5054873;28;20048;-75
2022/01/24 06:31:10;;;;;;;22.30;11.40;;;-0.40;99.90;;;;;;5055423;28;20021;-75
2022/01/24 06:33:36;;;;;;;22.88;11.30;;;-0.40;99.90;;;;;;5055151;28;20028;-76
2022/01/24 06:36:01;;;;;;;21.42;11.60;;;-0.50;99.90;;;;;;5054944;28;20029;-75
2022/01/24 06:38:27;;;;;;;19.40;11.13;;;-0.50;99.90;;;;;;5054660;28;20043;-75
2022/01/24 06:40:53;;;;;;;19.30;11.40;;;-0.60;99.90;;;;;;5054600;28;20057;-75
2022/01/24 06:43:18;;;;;;;23.60;13.98;;;1.90;99.90;;;;;;5055207;28;20029;-75
2022/01/24 06:45:44;;;;;;;20.70;11.52;;;-0.50;99.90;;;;;;5053347;28;20052;-76
2022/01/24 06:48:10;;;;;;;20.27;11.63;;;-0.50;99.90;;;;;;5036344;28;20041;-75
2022/01/24 06:50:35;;;;;;;19.88;12.80;;;-0.50;99.90;;;;;;5042075;28;20037;-76
2022/01/24 06:53:01;;;;;;;23.13;13.77;;;-0.60;99.90;;;;;;5055134;28;20029;-75
2022/01/24 06:55:27;;;;;;;20.75;12.23;;;-0.50;99.90;;;;;;5053860;28;20398;-75
2022/01/24 06:57:53;;;;;;;23.05;12.20;;;-0.60;99.90;;;;;;5054856;28;20385;-75
2022/01/24 07:00:25;;;;;;;19.08;12.52;;;-0.40;99.90;;;;;;5053093;28;20036;-75
2022/01/24 07:02:55;;;;;;;18.33;10.82;;;-0.70;99.90;;;;;;5054681;28;20029;-75
2022/01/24 07:05:20;;;;;;;20.63;11.00;;;-0.70;99.90;;;;;;5053179;28;20119;-75
2022/01/24 07:07:46;;;;;;;21.58;13.18;;;-0.70;99.90;;;;;;5054872;28;20501;-74
2022/01/24 07:10:12;;;;;;;25.15;14.35;;;-0.70;99.90;;;;;;5054230;28;20700;-75
2022/01/24 07:12:37;;;;;;;25.98;15.45;;;-0.70;99.90;;;;;;5054808;28;20485;-76
2022/01/24 07:15:08;;;;;;;21.65;14.00;;;-0.60;99.90;;;;;;5053169;28;20079;-76
2022/01/24 07:17:59;;;;;;;22.58;13.35;;;-0.70;99.90;;;;;;5049331;28;20048;-76
2022/01/24 07:20:20;;;;;;;23.65;13.20;;;0.40;99.90;;;;;;5036360;28;20709;-76
2022/01/24 07:22:46;;;;;;;26.00;14.05;;;-0.60;99.90;;;;;;5054120;28;20081;-76
2022/01/24 07:25:12;;;;;;;22.30;12.93;;;-0.50;99.90;;;;;;5054280;28;20104;-75
2022/01/24 07:27:37;;;;;;;22.52;13.35;;;-0.60;99.90;;;;;;5052790;28;20104;-78
2022/01/24 07:30:04;;;;;;;20.92;13.27;;;0.60;99.90;;;;;;5035897;28;20041;-75
2022/01/24 07:32:30;;;;;;;19.70;12.15;;;-0.50;99.90;;;;;;5054165;28;20033;-76
2022/01/24 07:34:57;;;;;;;18.02;11.88;;;-0.50;99.90;;;;;;5053591;28;20053;-77
2022/01/24 07:37:24;;;;;;;19.83;12.55;;;-0.40;99.90;;;;;;5051086;28;20024;-75
2022/01/24 07:39:51;;;;;;;20.38;13.15;;;-0.40;99.90;;;;;;5052106;28;20066;-75
2022/01/24 07:42:27;;;;;;;22.08;13.43;;;-0.30;99.90;;;;;;5052087;28;20024;-75
2022/01/24 07:44:53;;;;;;;22.80;13.77;;;-0.30;99.90;;;;;;5054111;28;20021;-75
2022/01/24 07:47:18;;;;;;;20.02;13.27;;;0.40;99.90;;;;;;5053981;28;20025;-75
2022/01/24 07:49:44;;;;;;;21.35;13.80;;;-0.10;99.90;;;;;;5053442;28;20029;-75
2022/01/24 07:52:10;;;;;;;22.08;12.60;;;-0.10;99.90;;;;;;5053655;28;20117;-78
2022/01/24 07:54:35;;;;;;;21.20;12.43;;;-0.10;99.90;;;;;;5055702;28;20052;-75
2022/01/24 07:57:01;;;;;;;23.27;14.05;;;0.00;99.90;;;;;;5050373;28;20055;-75
2022/01/24 07:59:27;;;;;;;24.08;13.48;;;0.10;99.90;;;;;;5033340;28;20033;-75
2022/01/24 08:01:52;;;;;;;20.20;12.02;;;0.30;99.90;;;;;;5049426;28;20036;-75
2022/01/24 08:04:18;;;;;;;21.50;13.18;;;0.50;99.90;;;;;;5050294;28;20037;-75
2022/01/24 08:06:46;;;;;;;19.00;12.90;;;0.50;99.90;;;;;;5053354;28;20037;-75
2022/01/24 08:09:12;;;;;;;22.33;12.85;;;0.50;99.90;;;;;;5049886;28;20022;-75
2022/01/24 08:11:37;;;;;;;19.15;12.75;;;0.60;99.90;;;;;;5044615;28;20033;-75
2022/01/24 08:14:03;;;;;;;18.70;12.38;;;0.80;99.90;;;;;;5044342;28;20037;-75
2022/01/24 08:16:29;;;;;;;18.60;12.80;;;0.90;99.90;;;;;;5044164;28;20034;-76
2022/01/24 08:18:57;;;;;;;20.23;11.70;;;0.90;99.90;;;;;;5034578;28;20021;-73
2022/01/24 08:21:23;;;;;;;23.33;12.15;;;1.10;99.90;;;;;;5047896;28;20028;-75
2022/01/24 08:23:50;;;;;;;17.08;11.13;;;2.00;99.90;;;;;;5049489;28;20021;-75
2022/01/24 08:26:16;;;;;;;15.88;11.15;;;1.20;99.90;;;;;;5040274;28;20033;-75
2022/01/24 08:28:42;;;;;;;17.42;11.40;;;1.20;99.90;;;;;;5028980;28;20518;-75
2022/01/24 08:31:08;;;;;;;15.95;10.27;;;1.30;99.90;;;;;;5033025;28;20039;-75
2022/01/24 08:33:33;;;;;;;20.55;10.73;;;1.30;99.90;;;;;;5048707;28;20029;-75
2022/01/24 08:35:59;;;;;;;16.92;10.27;;;1.40;99.90;;;;;;5047103;28;20036;-76
2022/01/24 08:38:26;;;;;;;16.23;10.25;;;1.40;99.90;;;;;;5047183;28;20413;-75
2022/01/24 08:40:57;;;;;;;14.35;10.10;;;1.80;99.90;;;;;;5048957;28;20040;-75
2022/01/24 08:43:37;;;;;;;15.32;9.63;;;3.80;99.90;;;;;;5049268;28;20047;-76
2022/01/24 08:46:03;;;;;;;16.05;9.25;;;1.80;99.90;;;;;;5049503;28;20446;-76
2022/01/24 08:48:31;;;;;;;15.95;10.50;;;1.70;99.90;;;;;;5047928;28;20021;-76
2022/01/24 08:50:58;;;;;;;17.35;10.75;;;1.70;99.90;;;;;;5048382;28;20021;-75
2022/01/24 08:53:31;;;;;;;13.90;9.52;;;1.80;99.90;;;;;;5035400;28;20029;-75
2022/01/24 08:55:58;;;;;;;15.18;10.00;;;2.20;99.90;;;;;;5046676;28;20125;-75
2022/01/24 08:58:24;;;;;;;10.50;7.68;;;3.10;99.90;;;;;;5032309;28;20029;-75
2022/01/24 09:00:50;;;;;;;14.50;8.65;;;4.30;99.90;;;;;;5028706;28;20025;-74
2022/01/24 09:03:16;;;;;;;17.63;7.47;;;4.80;99.90;;;;;;5048223;28;20494;-76
2022/01/24 09:05:42;;;;;;;9.00;6.28;;;6.50;99.90;;;;;;5046302;28;20031;-76
2022/01/24 09:08:09;;;;;;;10.35;6.45;;;7.70;99.90;;;;;;5032421;28;20052;-75
2022/01/24 09:10:38;;;;;;;11.13;6.22;;;7.70;99.90;;;;;;5029168;28;20398;-76
2022/01/24 09:13:05;;;;;;;9.25;6.40;;;8.50;99.90;;;;;;5032147;28;20033;-76
2022/01/24 09:15:30;;;;;;;8.23;6.13;;;7.60;99.90;;;;;;5043815;28;20036;-76
2022/01/24 09:17:56;;;;;;;9.35;6.53;;;9.00;99.90;;;;;;5052426;28;20029;-76
2022/01/24 09:20:22;;;;;;;10.13;6.95;;;8.30;99.90;;;;;;5044632;28;20075;-76
2022/01/24 09:22:49;;;;;;;9.93;5.85;;;10.20;99.90;;;;;;5052910;28;20056;-75
2022/01/24 09:25:16;;;;;;;7.85;5.72;;;9.30;99.90;;;;;;5050913;28;20024;-76
2022/01/24 09:27:43;;;;;;;9.45;6.10;;;9.50;99.90;;;;;;5052380;28;20025;-76
2022/01/24 09:30:11;;;;;;;12.93;8.20;;;9.90;99.90;;;;;;5049992;28;20120;-76
2022/01/24 09:32:37;;;;;;;7.60;5.75;;;10.10;99.90;;;;;;5052221;28;20060;-76
2022/01/24 09:35:08;;;;;;;9.07;5.50;;;12.10;99.90;;;;;;5051067;28;20085;-75
2022/01/24 09:37:34;;;;;;;7.28;5.13;;;10.70;99.90;;;;;;5052690;28;20033;-76
2022/01/24 09:40:00;;;;;;;9.27;5.95;;;10.70;99.90;;;;;;5051420;28;20481;-76
2022/01/24 09:42:26;;;;;;;9.63;5.93;;;10.40;99.90;;;;;;5052656;28;20032;-76
2022/01/24 09:44:52;;;;;;;10.40;5.75;;;10.70;99.90;;;;;;5048651;28;20032;-76
2022/01/24 09:47:18;;;;;;;9.70;6.15;;;9.90;99.90;;;;;;5050924;28;20472;-76
2022/01/24 09:49:46;;;;;;;8.57;5.78;;;10.80;99.90;;;;;;5036690;28;20033;-75
2022/01/24 09:52:12;;;;;;;18.10;7.07;;;10.40;99.90;;;;;;5048199;28;20115;-74
2022/01/24 09:54:38;;;;;;;8.80;5.80;;;8.60;99.90;;;;;;5046356;28;20116;-75
2022/01/24 09:57:04;;;;;;;9.85;6.05;;;10.50;99.90;;;;;;5041787;28;20036;-75
2022/01/24 09:59:30;;;;;;;11.52;7.55;;;11.00;99.30;;;;;;5027662;28;20626;-75
2022/01/24 10:01:56;;;;;;;8.57;4.65;;;11.60;98.30;;;;;;5027575;28;20029;-75
2022/01/24 10:04:25;;;;;;;8.13;4.57;;;11.30;97.00;;;;;;5027957;28;20183;-75
2022/01/24 10:07:12;;;;;;;8.43;4.82;;;11.30;97.10;;;;;;5031675;28;20112;-75
2022/01/24 10:09:40;;;;;;;5.63;3.95;;;11.30;97.70;;;;;;5031732;28;20100;-76
2022/01/24 10:12:13;;;;;;;7.45;4.55;;;11.90;97.30;;;;;;5045646;28;20078;-76
2022/01/24 10:17:29;;;;;;;6.53;4.43;;;10.80;98.10;;;;;;5052015;28;20044;-75
2022/01/24 10:19:55;;;;;;;6.72;4.53;;;10.60;99.10;;;;;;5050708;28;20025;-75
2022/01/24 10:22:25;;;;;;;6.82;4.55;;;10.30;99.10;;;;;;5051303;28;20017;-75
2022/01/24 10:24:54;;;;;;;6.97;4.88;;;10.80;98.60;;;;;;5050259;28;20025;-74
2022/01/24 10:27:29;;;;;;;26.42;14.10;;;11.20;98.40;;;;;;5051160;28;20044;-75
2022/01/24 10:30:08;;;;;;;9.95;5.80;;;11.00;98.30;;;;;;5050338;28;20037;-74
2022/01/24 10:32:49;;;;;;;7.15;5.13;;;10.90;96.90;;;;;;5031562;28;20034;-75
2022/01/24 10:35:35;;;;;;;7.25;4.90;;;11.00;98.00;;;;;;5044890;28;20029;-75
2022/01/24 10:38:40;;;;;;;6.70;4.78;;;10.90;97.10;;;;;;5049847;28;20055;-75
2022/01/24 10:42:26;;;;;;;6.93;5.07;;;11.80;97.40;;;;;;5051237;28;20021;-75
2022/01/24 10:44:08;;;;;;;7.93;5.05;;;11.50;96.80;;;;;;5041486;28;20111;-74
2022/01/24 10:46:34;;;;;;;7.43;4.80;;;11.50;95.50;;;;;;5051312;28;20029;-74
2022/01/24 10:49:06;;;;;;;7.25;4.85;;;11.40;96.40;;;;;;5050777;28;20374;-75
2022/01/24 10:51:44;;;;;;;8.15;5.65;;;11.60;95.40;;;;;;5050962;28;20104;-75
2022/01/24 10:54:12;;;;;;;8.95;5.32;;;11.90;95.80;;;;;;5049689;28;20057;-75
2022/01/24 10:56:40;;;;;;;9.73;5.35;;;12.30;94.10;;;;;;5050717;28;20029;-74
2022/01/24 10:59:11;;;;;;;8.75;5.13;;;13.70;92.50;;;;;;5030537;28;20091;-74
2022/01/24 11:01:41;;;;;;;8.27;5.85;;;13.60;91.00;;;;;;5041004;28;20409;-73
2022/01/24 11:04:09;;;;;;;7.38;5.72;;;13.20;88.60;;;;;;5050843;28;20108;-74
2022/01/24 11:06:47;;;;;;;7.25;5.82;;;13.30;89.50;;;;;;5050867;28;20028;-74
2022/01/24 11:09:25;;;;;;;7.20;4.95;;;13.50;89.10;;;;;;5050764;28;20115;-74
2022/01/24 11:11:57;;;;;;;6.63;5.15;;;11.70;89.00;;;;;;5053787;28;20021;-74
2022/01/24 11:14:25;;;;;;;7.68;4.80;;;12.90;90.20;;;;;;5054247;28;20071;-74
2022/01/24 11:16:52;;;;;;;6.18;4.38;;;13.10;90.10;;;;;;5054421;28;20112;-74
2022/01/24 11:19:32;;;;;;;6.43;4.80;;;12.90;88.60;;;;;;5052796;28;20017;-73
2022/01/24 11:22:00;;;;;;;6.32;4.30;;;12.10;90.70;;;;;;5054270;28;20036;-74
2022/01/24 11:24:51;;;;;;;5.85;4.30;;;12.10;91.00;;;;;;5054982;28;20052;-74
2022/01/24 11:27:16;;;;;;;6.00;4.20;;;13.90;91.20;;;;;;5054346;28;20052;-74
2022/01/24 11:29:43;;;;;;;8.30;4.90;;;12.50;90.70;;;;;;5028967;28;20057;-74
2022/01/24 11:32:23;;;;;;;7.75;4.15;;;13.10;90.70;;;;;;5034260;28;20053;-75
2022/01/24 11:34:52;;;;;;;5.88;4.22;;;13.30;85.60;;;;;;5042861;28;20071;-71
2022/01/24 11:37:47;;;;;;;5.78;4.18;;;13.30;90.10;;;;;;5053869;28;20029;-72
2022/01/24 11:40:16;;;;;;;5.60;4.03;;;13.70;87.10;;;;;;5046486;28;20106;-75
2022/01/24 11:42:45;;;;;;;5.90;4.63;;;13.50;86.60;;;;;;5053804;28;20021;-74
2022/01/24 11:45:14;;;;;;;6.60;4.57;;;;;;;;;;5053832;28;20037;-74
2022/01/24 11:47:41;;;;;;;8.15;4.70;;;;;;;;;;5053849;28;20396;-74
2022/01/24 11:50:26;;;;;;;7.78;5.03;;;;;;;;;;5052325;28;20029;-73
2022/01/24 11:52:53;;;;;;;6.00;4.00;;;;;;;;;;5044314;28;20025;-75
2022/01/24 11:55:31;;;;;;;6.53;4.63;;;;;;;;;;5052140;28;20112;-75
2022/01/24 11:57:59;;;;;;;6.65;4.60;;;;;;;;;;5041286;28;20032;-75
2022/01/24 12:00:29;;;;;;;9.25;4.38;;;;;;;;;;5049554;28;20713;-74
2022/01/24 12:02:56;;;;;;;6.18;4.05;;;;;;;;;;5053888;28;20142;-78
2022/01/24 12:05:24;;;;;;;6.32;4.70;;;;;;;;;;5053455;28;20538;-74
2022/01/24 12:07:52;;;;;;;5.13;3.67;;;;;;;;;;5057389;28;20040;-73
2022/01/24 12:10:25;;;;;;;8.85;5.80;;;;;;;;;;5052734;28;20029;-75
2022/01/24 12:12:51;;;;;;;6.93;4.65;;;;;;;;;;5053491;28;20393;-74
2022/01/24 12:15:35;;;;;;;7.93;4.60;;;;;;;;;;5053191;28;20363;-74
2022/01/24 12:18:02;;;;;;;6.60;3.83;;;;;;;;;;5053499;28;20029;-74
2022/01/24 12:20:31;;;;;;;6.00;4.03;;;;;;;;;;5050462;28;20103;-74
2022/01/24 12:22:58;;;;;;;7.35;3.38;;;;;;;;;;5053329;28;20017;-74
2022/01/24 12:25:43;;;;;;;5.43;4.03;;;;;;;;;;5053000;28;20029;-74
2022/01/24 12:28:15;;;;;;;5.13;3.72;;;;;;;;;;5053207;28;20409;-74
2022/01/24 12:30:41;;;;;;;;;;;;;;;;;;5051870;28;20386;-74
2022/01/24 12:33:07;;;;;;;6.00;4.13;;;;;;;;;;5053226;28;19916;-74
2022/01/24 12:35:33;;;;;;;14.95;4.22;;;;;;;;;;5052668;28;20044;-74
2022/01/24 12:38:16;;;;;;;7.63;4.95;;;;;;;;;;5053003;28;20031;-74
2022/01/24 12:40:42;;;;;;;7.50;4.00;;;;;;;;;;5050963;28;20028;-74
2022/01/24 12:43:18;;;;;;;5.72;3.22;;;;;;;;;;5052913;28;20036;-75
2022/01/24 12:48:29;;;;;;;4.30;3.40;;;;;;;;;;5052681;28;20048;-74
2022/01/24 12:50:55;;;;;;;3.40;2.85;;;;;;;;;;5052398;28;20037;-74
2022/01/24 12:53:22;;;;;;;4.50;3.38;;;;;;;;;;5052872;28;20498;-75
2022/01/24 12:55:58;;;;;;;8.93;4.82;;;;;;;;;;5052607;28;20057;-74
2022/01/24 12:58:32;;;;;;;5.53;3.70;;;;;;;;;;5037385;28;20017;-74
2022/01/24 13:00:58;;;;;;;6.10;3.85;;;;;;;;;;5032579;28;20021;-74
2022/01/24 13:03:24;;;;;;;12.77;5.72;;;;;;;;;;5032749;28;20032;-74
2022/01/24 13:05:50;;;;;;;8.10;4.18;;;;;;;;;;5043401;28;20026;-73
2022/01/24 13:08:17;;;;;;;10.77;5.70;;;;;;;;;;5043106;28;20079;-74
2022/01/24 13:10:47;;;;;;;11.93;5.90;;;;;;;;;;5044729;28;20036;-75
2022/01/24 13:13:15;;;;;;;9.93;5.35;;;;;;;;;;5039566;28;20100;-75
2022/01/24 13:21:17;;;;;;;7.50;3.90;;;;;;;;;;5044760;28;20083;-75
2022/01/24 13:23:50;;;;;;;5.95;3.42;;;;;;;;;;5052057;28;20100;-74
2022/01/24 13:26:16;;;;;;;6.00;3.03;;;;;;;;;;5045380;28;20024;-75
2022/01/24 13:28:42;;;;;;;5.55;3.40;;;;;;;;;;5039812;28;20022;-74
2022/01/24 13:31:09;;;;;;;5.80;3.25;;;;;;;;;;5042810;28;20034;-74
2022/01/24 13:33:38;;;;;;;6.32;3.15;;;;;;;;;;5040323;28;20031;-75
2022/01/24 13:36:07;;;;;;;5.93;2.92;;;;;;;;;;5044163;28;20402;-75
2022/01/24 13:38:34;;;;;;;5.70;4.50;;;;;;;;;;5050462;28;20737;-75
2022/01/24 13:41:04;;;;;;;6.80;3.00;;;;;;;;;;5049943;28;20487;-74
2022/01/24 13:43:31;;;;;;;6.18;3.40;;;;;;;;;;5052009;28;20020;-74
2022/01/24 13:45:58;;;;;;;7.68;3.33;;;;;;;;;;5051313;28;20466;-75
2022/01/24 13:48:24;;;;;;;4.07;3.03;;;;;;;;;;5040216;28;20379;-74
2022/01/24 13:50:55;;;;;;;5.10;3.17;;;;;;;;;;5044057;28;20490;-74
2022/01/24 13:53:29;;;;;;;4.30;2.90;;;;;;;;;;5040661;28;20030;-74
2022/01/24 13:55:55;;;;;;;6.68;2.67;;;;;;;;;;5041466;28;20041;-74
2022/01/24 13:58:25;;;;;;;6.95;3.30;;;;;;;;;;5039138;28;20033;-74
2022/01/24 14:00:58;;;;;;;6.25;3.03;;;;;;;;;;5040953;28;20030;-74
2022/01/24 14:03:24;;;;;;;5.22;3.03;;;;;;;;;;5039587;28;20026;-75
2022/01/24 14:06:10;;;;;;;4.18;2.90;;;;;;;;;;5040434;28;20071;-74
2022/01/24 14:08:36;;;;;;;6.35;3.58;;;;;;;;;;5040454;28;20048;-75
2022/01/24 14:11:13;;;;;;;5.38;3.42;;;;;;;;;;5040467;28;20029;-74
2022/01/24 14:13:40;;;;;;;7.13;4.05;;;;;;;;;;5040108;28;20105;-74
2022/01/24 14:16:21;;;;;;;5.60;3.08;;;;;;;;;;5048568;28;20030;-73
2022/01/24 14:18:59;;;;;;;5.45;3.33;;;;;;;;;;5050866;28;20021;-74
2022/01/24 14:21:25;;;;;;;4.88;3.38;;;;;;;;;;5051086;28;20058;-75
2022/01/24 14:23:51;;;;;;;7.45;2.85;;;;;;;;;;5051234;28;20064;-75
2022/01/24 14:26:18;;;;;;;5.95;2.72;;;;;;;;;;5051250;28;20104;-75
2022/01/24 14:28:45;;;;;;;2.95;2.03;;;;;;;;;;5049562;28;20067;-75
2022/01/24 14:31:13;;;;;;;6.40;2.55;;;;;;;;;;5051299;28;20025;-75
2022/01/24 14:33:40;;;;;;;5.60;2.28;;;;;;;;;;5033933;28;20037;-75
2022/01/24 14:36:11;;;;;;;4.90;2.38;;;;;;;;;;5049626;28;20490;-75
2022/01/24 14:38:44;;;;;;;5.80;2.60;;;;;;;;;;5050725;28;20036;-75
2022/01/24 14:41:14;;;;;;;7.40;2.65;;;;;;;;;;5051163;28;20025;-74
2022/01/24 14:46:27;;;;;;;5.03;2.42;;;;;;;;;;5035348;28;20406;-75
2022/01/24 14:48:58;;;;;;;4.85;2.40;;;;;;;;;;5034670;28;20048;-75
2022/01/24 14:51:29;;;;;;;5.30;2.42;;;;;;;;;;5049393;28;20032;-74
2022/01/24 14:53:56;;;;;;;7.18;2.75;;;;;;;;;;5054874;28;20017;-75
2022/01/24 14:56:22;;;;;;;4.60;2.20;;;;;;;;;;5054767;28;20398;-75
2022/01/24 14:58:48;;;;;;;3.70;2.20;;;;;;;;;;5034911;28;20029;-75
2022/01/24 15:01:15;;;;;;;5.38;1.92;;;;;;;;;;5033881;28;20394;-74
2022/01/24 15:03:42;;;;;;;4.25;2.10;;;;;;;;;;5035024;28;20485;-75
2022/01/24 15:06:08;;;;;;;4.50;2.22;;;;;;;;;;5051398;28;20029;-75
2022/01/24 15:08:35;;;;;;;4.15;2.30;;;;;;;;;;5054107;28;20090;-75